createdAt,value
2022-07-25T00:02:13.003Z,96098.38
2022-07-25T00:04:39.845Z,96091.25
2022-07-25T00:07:05.872Z,96092.22
2022-07-25T00:09:31.713Z,96088.25
2022-07-25T00:11:57.634Z,96086.06
2022-07-25T00:14:23.488Z,96080.03
2022-07-25T00:16:49.263Z,96085.88
2022-07-25T00:19:15.146Z,96077.19
2022-07-25T00:21:41.097Z,96078.28
2022-07-25T00:24:07.604Z,96082.75
2022-07-25T00:26:39.490Z,96073.22
2022-07-25T00:29:05.966Z,96086.03
2022-07-25T00:31:31.824Z,96071.97
2022-07-25T00:33:57.630Z,96082.88
2022-07-25T00:36:23.516Z,96072.91
2022-07-25T00:38:49.334Z,96079.22
2022-07-25T00:41:15.429Z,96073.06
2022-07-25T00:43:45.204Z,96080.97
2022-07-25T00:46:19.044Z,96073.72
2022-07-25T00:48:46.896Z,96065.78
2022-07-25T00:51:12.982Z,96053.47
2022-07-25T00:53:39.154Z,96059.16
2022-07-25T00:56:06.045Z,96057.28
2022-07-25T00:58:32.802Z,96047.31
2022-07-25T01:00:59.977Z,96045.72
2022-07-25T01:03:26.163Z,96044.16
2022-07-25T01:05:53.932Z,96039.72
2022-07-25T01:08:21.004Z,96042.88
2022-07-25T01:10:48.437Z,96042.41
2022-07-25T01:13:14.689Z,96036.38
2022-07-25T01:15:42.110Z,96029.28
2022-07-25T01:18:08.089Z,96034.31
2022-07-25T01:20:34.255Z,96028.31
2022-07-25T01:23:00.496Z,96028.31
2022-07-25T01:25:27.042Z,96026.56
2022-07-25T01:27:55.838Z,96021.72
2022-07-25T01:30:23.785Z,96017.72
2022-07-25T01:32:50.263Z,96011.88
2022-07-25T01:35:16.205Z,96020.88
2022-07-25T01:37:42.174Z,96016.13
2022-07-25T01:40:13.312Z,96015.50
2022-07-25T01:42:39.187Z,96020.06
2022-07-25T01:45:05.723Z,96018.81
2022-07-25T01:47:31.662Z,96012.50
2022-07-25T01:49:57.502Z,96006.81
2022-07-25T01:52:23.361Z,96001.72
2022-07-25T01:54:49.188Z,96007.28
2022-07-25T01:57:15.674Z,96003.94
2022-07-25T01:59:42.710Z,96004.59
2022-07-25T02:02:09.191Z,95989.28
2022-07-25T02:04:35.689Z,95995.28
2022-07-25T02:07:01.890Z,95992.75
2022-07-25T02:09:27.768Z,95989.88
2022-07-25T02:11:53.949Z,95990.38
2022-07-25T02:14:19.801Z,95986.41
2022-07-25T02:16:45.731Z,95990.22
2022-07-25T02:19:11.544Z,95987.69
2022-07-25T02:21:37.455Z,95986.25
2022-07-25T02:24:03.735Z,95980.91
2022-07-25T02:26:29.865Z,95979.81
2022-07-25T02:28:55.685Z,95980.13
2022-07-25T02:31:21.690Z,95979.31
2022-07-25T02:33:47.724Z,95978.22
2022-07-25T02:36:13.615Z,95969.38
2022-07-25T02:38:39.441Z,95974.28
2022-07-25T02:41:05.559Z,95972.69
2022-07-25T02:43:31.393Z,95971.13
2022-07-25T02:45:57.325Z,95966.22
2022-07-25T02:48:23.176Z,95969.22
2022-07-25T02:50:49.069Z,95960.53
2022-07-25T02:53:14.878Z,95954.50
2022-07-25T02:55:40.710Z,95951.53
2022-07-25T02:58:06.546Z,95955.78
2022-07-25T03:00:32.671Z,95959.59
2022-07-25T03:02:58.522Z,95958.47
2022-07-25T03:05:24.419Z,95955.94
2022-07-25T03:07:50.847Z,95951.06
2022-07-25T03:10:17.016Z,95940.47
2022-07-25T03:12:43.386Z,95941.09
2022-07-25T03:15:10.549Z,95935.88
2022-07-25T03:17:37.386Z,95936.50
2022-07-25T03:20:05.197Z,95932.56
2022-07-25T03:22:31.041Z,95931.78
2022-07-25T03:24:56.903Z,95930.81
2022-07-25T03:27:22.746Z,95923.56
2022-07-25T03:29:48.649Z,95926.09
2022-07-25T03:32:14.517Z,95928.91
2022-07-25T03:34:40.479Z,95917.72
2022-07-25T03:37:06.281Z,95912.19
2022-07-25T03:39:32.149Z,95918.69
2022-07-25T03:41:58.150Z,95916.75
2022-07-25T03:44:24.645Z,95916.75
2022-07-25T03:46:51.364Z,95918.97
2022-07-25T03:49:18.531Z,95908.56
2022-07-25T03:51:44.474Z,95912.66
2022-07-25T03:54:12.996Z,95908.69
2022-07-25T03:56:43.886Z,95909.34
2022-07-25T03:59:11.891Z,95910.31
2022-07-25T04:01:38.557Z,95904.63
2022-07-25T04:04:04.797Z,95902.88
2022-07-25T04:06:30.944Z,95899.09
2022-07-25T04:08:57.488Z,95900.66
2022-07-25T04:11:23.645Z,95897.97
2022-07-25T04:13:50.934Z,95889.94
2022-07-25T04:16:22.603Z,95888.34
2022-07-25T04:18:52.154Z,95887.41
2022-07-25T04:21:18.125Z,95889.13
2022-07-25T04:23:44.030Z,95884.22
2022-07-25T04:26:09.855Z,95879.81
2022-07-25T04:28:35.696Z,95873.97
2022-07-25T04:31:01.613Z,95872.06
2022-07-25T04:33:27.524Z,95869.84
2022-07-25T04:35:53.407Z,95866.38
2022-07-25T04:38:19.339Z,95865.91
2022-07-25T04:40:46.299Z,95860.19
2022-07-25T04:43:12.397Z,95858.75
2022-07-25T04:45:38.325Z,95864.16
2022-07-25T04:48:04.828Z,95856.72
2022-07-25T04:50:30.799Z,95852.16
2022-07-25T04:52:56.669Z,95854.50
2022-07-25T04:55:22.733Z,95853.84
2022-07-25T04:57:48.613Z,95849.44
2022-07-25T05:00:15.232Z,95849.09
2022-07-25T05:02:42.409Z,95847.50
2022-07-25T05:05:08.906Z,95837.66
2022-07-25T05:07:47.789Z,95830.91
2022-07-25T05:10:13.658Z,95839.28
2022-07-25T05:12:39.453Z,95836.88
2022-07-25T05:15:05.863Z,95843.03
2022-07-25T05:17:31.715Z,95831.78
2022-07-25T05:19:58.049Z,95839.25
2022-07-25T05:22:28.534Z,95839.19
2022-07-25T05:24:55.609Z,95843.63
2022-07-25T05:27:21.477Z,95834.25
2022-07-25T05:29:47.302Z,95823.78
2022-07-25T05:32:13.136Z,95829.44
2022-07-25T05:34:39.182Z,95821.06
2022-07-25T05:37:05.027Z,95822.50
2022-07-25T05:39:31.075Z,95820.25
2022-07-25T05:41:56.941Z,95822.63
2022-07-25T05:44:22.785Z,95813.38
2022-07-25T05:46:48.686Z,95814.00
2022-07-25T05:49:15.315Z,95806.03
2022-07-25T05:51:41.160Z,95807.06
2022-07-25T05:54:07.486Z,95808.38
2022-07-25T05:56:33.701Z,95815.06
2022-07-25T05:58:59.534Z,95810.63
2022-07-25T06:01:25.443Z,95805.25
2022-07-25T06:03:51.369Z,95811.97
2022-07-25T06:06:17.211Z,95805.16
2022-07-25T06:08:43.437Z,95812.91
2022-07-25T06:11:11.257Z,95804.41
2022-07-25T06:13:37.102Z,95808.50
2022-07-25T06:16:03.402Z,95802.13
2022-07-25T06:18:29.642Z,95805.38
2022-07-25T06:20:55.521Z,95809.44
2022-07-25T06:23:21.464Z,95810.47
2022-07-25T06:25:50.261Z,95797.25
2022-07-25T06:28:18.175Z,95800.66
2022-07-25T06:30:44.887Z,95797.00
2022-07-25T06:33:11.666Z,95803.13
2022-07-25T06:35:37.590Z,95803.66
2022-07-25T06:38:03.769Z,95803.06
2022-07-25T06:40:29.899Z,95805.66
2022-07-25T06:42:56.084Z,95808.50
2022-07-25T06:45:22.313Z,95800.66
2022-07-25T06:47:48.574Z,95798.44
2022-07-25T06:50:21.179Z,95798.56
2022-07-25T06:52:47.642Z,95799.25
2022-07-25T06:55:14.643Z,95807.75
2022-07-25T06:57:41.925Z,95800.91
2022-07-25T07:00:10.959Z,95794.63
2022-07-25T07:02:51.873Z,95789.34
2022-07-25T07:05:18.143Z,95789.09
2022-07-25T07:07:47.592Z,95791.16
2022-07-25T07:10:13.867Z,95785.38
2022-07-25T07:12:39.816Z,95789.22
2022-07-25T07:15:05.982Z,95783.81
2022-07-25T07:17:31.911Z,95782.47
2022-07-25T07:19:57.740Z,95777.97
2022-07-25T07:22:24.153Z,95780.13
2022-07-25T07:24:50.036Z,95776.75
2022-07-25T07:27:16.193Z,95777.66
2022-07-25T07:29:45.113Z,95772.25
2022-07-25T07:32:11.127Z,95771.34
2022-07-25T07:34:37.328Z,95774.59
2022-07-25T07:37:03.222Z,95758.34
2022-07-25T07:39:29.034Z,95766.31
2022-07-25T07:41:54.858Z,95772.84
2022-07-25T07:44:20.737Z,95785.78
2022-07-25T07:46:46.750Z,95770.56
2022-07-25T07:49:12.848Z,95777.66
2022-07-25T07:51:38.732Z,95777.28
2022-07-25T07:54:23.478Z,95766.81
2022-07-25T07:56:49.325Z,95770.19
2022-07-25T07:59:15.242Z,95769.28
2022-07-25T08:01:41.135Z,95764.44
2022-07-25T08:04:07.208Z,95758.69
2022-07-25T08:06:33.288Z,95765.47
2022-07-25T08:08:59.118Z,95762.31
2022-07-25T08:11:25.769Z,95767.44
2022-07-25T08:13:51.895Z,95758.50
2022-07-25T08:16:18.109Z,95776.44
2022-07-25T08:18:44.015Z,95765.22
2022-07-25T08:21:10.767Z,95756.34
2022-07-25T08:23:38.118Z,95748.03
2022-07-25T08:26:04.949Z,95751.09
2022-07-25T08:28:31.330Z,95757.91
2022-07-25T08:30:58.310Z,95755.03
2022-07-25T08:33:25.158Z,95751.22
2022-07-25T08:35:53.801Z,95756.16
2022-07-25T08:38:21.258Z,95755.47
2022-07-25T08:40:47.644Z,95755.88
2022-07-25T08:43:15.144Z,95760.03
2022-07-25T08:45:52.803Z,95756.28
2022-07-25T08:48:24.750Z,95750.19
2022-07-25T08:50:52.020Z,95754.09
2022-07-25T08:53:35.727Z,95750.19
2022-07-25T08:56:20.461Z,95747.25
2022-07-25T08:58:47.444Z,95751.13
2022-07-25T09:01:13.673Z,95752.47
2022-07-25T09:03:41.496Z,95744.38
2022-07-25T09:06:19.342Z,95748.09
2022-07-25T09:08:57.106Z,95745.28
2022-07-25T09:11:31.815Z,95741.78
2022-07-25T09:14:10.219Z,95745.28
2022-07-25T09:16:40.042Z,95751.03
2022-07-25T09:19:18.507Z,95750.06
2022-07-25T09:21:56.501Z,95742.06
2022-07-25T09:24:23.015Z,95744.88
2022-07-25T09:26:51.164Z,95742.00
2022-07-25T09:29:29.288Z,95735.84
2022-07-25T09:31:56.953Z,95739.72
2022-07-25T09:34:41.087Z,95744.47
2022-07-25T09:37:09.531Z,95740.69
2022-07-25T09:39:46.500Z,95753.19
2022-07-25T09:42:25.846Z,95762.38
2022-07-25T09:45:13.474Z,95776.53
2022-07-25T09:47:57.864Z,95776.25
2022-07-25T09:50:26.231Z,95772.09
2022-07-25T09:52:54.220Z,95759.13
2022-07-25T09:55:21.366Z,95749.81
2022-07-25T09:57:54.152Z,95754.28
2022-07-25T10:00:23.481Z,95751.44
2022-07-25T10:02:55.718Z,95752.84
2022-07-25T10:05:21.790Z,95758.63
2022-07-25T10:07:51.644Z,95753.72
2022-07-25T10:10:25.877Z,95748.03
2022-07-25T10:13:09.496Z,95758.25
2022-07-25T10:15:49.860Z,95760.22
2022-07-25T10:18:18.619Z,95764.81
2022-07-25T10:20:47.010Z,95768.91
2022-07-25T10:23:20.732Z,95759.78
2022-07-25T10:25:49.113Z,95761.34
2022-07-25T10:28:19.244Z,95766.25
2022-07-25T10:30:45.829Z,95767.97
2022-07-25T10:33:15.156Z,95788.72
2022-07-25T10:35:41.725Z,95779.56
2022-07-25T10:38:08.216Z,95782.31
2022-07-25T10:40:39.754Z,95792.00
2022-07-25T10:43:09.072Z,95803.00
2022-07-25T10:45:42.547Z,95798.84
2022-07-25T10:48:22.933Z,95793.31
2022-07-25T10:50:56.795Z,95796.91
2022-07-25T10:53:45.777Z,95799.16
2022-07-25T10:56:14.436Z,95792.59
2022-07-25T10:59:00.908Z,95775.72
2022-07-25T11:01:30.742Z,95780.59
2022-07-25T11:04:14.900Z,95769.16
2022-07-25T11:06:42.197Z,95755.66
2022-07-25T11:09:25.037Z,95761.03
2022-07-25T11:11:54.851Z,95748.25
2022-07-25T11:14:21.912Z,95744.19
2022-07-25T11:16:50.558Z,95753.47
2022-07-25T11:19:25.872Z,95756.63
2022-07-25T11:21:58.726Z,95762.63
2022-07-25T11:24:42.499Z,95769.47
2022-07-25T11:27:12.765Z,95762.38
2022-07-25T11:29:39.329Z,95760.22
2022-07-25T11:32:11.026Z,95769.81
2022-07-25T11:34:43.430Z,95779.03
2022-07-25T11:37:11.093Z,95773.66
2022-07-25T11:39:39.329Z,95784.84
2022-07-25T11:42:11.878Z,95791.78
2022-07-25T11:44:44.135Z,95792.38
2022-07-25T11:47:28.961Z,95779.28
2022-07-25T11:49:59.766Z,95781.34
2022-07-25T11:52:34.698Z,95772.69
2022-07-25T11:55:07.804Z,95774.03
2022-07-25T11:57:36.047Z,95758.38
2022-07-25T12:00:07.963Z,95760.13
2022-07-25T12:02:36.893Z,95757.03
2022-07-25T12:05:05.607Z,95761.50
2022-07-25T12:07:45.112Z,95748.88
2022-07-25T12:10:15.028Z,95743.38
2022-07-25T12:12:42.892Z,95746.50
2022-07-25T12:15:11.226Z,95740.53
2022-07-25T12:17:37.611Z,95750.66
2022-07-25T12:20:07.881Z,95747.06
2022-07-25T12:22:36.716Z,95745.84
2022-07-25T12:25:03.139Z,95750.81
2022-07-25T12:27:29.062Z,95752.81
2022-07-25T12:29:54.888Z,95758.38
2022-07-25T12:32:20.711Z,95764.22
2022-07-25T12:34:46.700Z,95774.44
2022-07-25T12:37:12.661Z,95772.19
2022-07-25T12:39:39.002Z,95771.13
2022-07-25T12:42:04.945Z,95781.31
2022-07-25T12:44:30.782Z,95786.47
2022-07-25T12:46:56.613Z,95774.25
2022-07-25T12:49:22.564Z,95784.56
2022-07-25T12:51:48.692Z,95785.63
2022-07-25T12:54:20.055Z,95781.06
2022-07-25T12:56:48.032Z,95795.91
2022-07-25T12:59:13.992Z,95783.47
2022-07-25T13:01:39.896Z,95791.31
2022-07-25T13:04:08.431Z,95780.28
2022-07-25T13:06:38.723Z,95775.03
2022-07-25T13:09:05.920Z,95778.72
2022-07-25T13:11:31.944Z,95784.28
2022-07-25T13:13:57.902Z,95780.34
2022-07-25T13:16:23.812Z,95783.66
2022-07-25T13:18:49.745Z,95780.28
2022-07-25T13:21:15.722Z,95775.50
2022-07-25T13:23:41.657Z,95788.94
2022-07-25T13:26:08.035Z,95781.19
2022-07-25T13:28:33.932Z,95794.47
2022-07-25T13:31:01.146Z,95801.63
2022-07-25T13:33:27.752Z,95800.50
2022-07-25T13:35:53.835Z,95811.66
2022-07-25T13:38:19.816Z,95797.75
2022-07-25T13:40:45.676Z,95801.91
2022-07-25T13:43:13.347Z,95804.75
2022-07-25T13:45:40.551Z,95811.81
2022-07-25T13:48:28.474Z,95806.75
2022-07-25T13:50:52.462Z,95804.66
2022-07-25T13:53:18.597Z,95810.06
2022-07-25T13:55:44.454Z,95805.56
2022-07-25T13:58:10.284Z,95806.34
2022-07-25T14:00:36.095Z,95809.53
2022-07-25T14:03:01.955Z,95808.59
2022-07-25T14:05:27.833Z,95807.09
2022-07-25T14:07:53.695Z,95805.91
2022-07-25T14:10:19.502Z,95806.75
2022-07-25T14:12:45.382Z,95801.28
2022-07-25T14:15:11.904Z,95800.81
2022-07-25T14:17:38.320Z,95796.88
2022-07-25T14:20:05.904Z,95791.84
2022-07-25T14:22:31.755Z,95787.56
2022-07-25T14:24:57.651Z,95791.72
2022-07-25T14:27:23.795Z,95791.53
2022-07-25T14:29:49.922Z,95792.81
2022-07-25T14:32:15.802Z,95800.03
2022-07-25T14:34:41.682Z,95793.84
2022-07-25T14:37:07.981Z,95795.81
2022-07-25T14:39:34.224Z,95813.03
2022-07-25T14:42:00.192Z,95808.59
2022-07-25T14:44:27.912Z,95828.16
2022-07-25T14:46:55.911Z,95814.38
2022-07-25T14:49:22.833Z,95821.88
2022-07-25T14:51:49.148Z,95825.19
2022-07-25T14:54:18.241Z,95828.66
2022-07-25T14:56:44.356Z,95817.41
2022-07-25T14:59:11.049Z,95835.28
2022-07-25T15:01:38.416Z,95822.66
2022-07-25T15:04:04.711Z,95823.22
2022-07-25T15:06:31.294Z,95816.25
2022-07-25T15:08:59.684Z,95828.09
2022-07-25T15:11:25.570Z,95834.47
2022-07-25T15:13:52.280Z,95833.84
2022-07-25T15:16:18.300Z,95829.97
2022-07-25T15:19:13.234Z,95835.16
2022-07-25T15:21:30.433Z,95825.16
2022-07-25T15:23:56.783Z,95827.41
2022-07-25T15:26:23.214Z,95829.75
2022-07-25T15:28:49.135Z,95825.78
2022-07-25T15:31:15.643Z,95829.81
2022-07-25T15:33:41.463Z,95821.03
2022-07-25T15:36:09.039Z,95821.97
2022-07-25T15:38:34.992Z,95835.16
2022-07-25T15:41:00.814Z,95825.13
2022-07-25T15:43:26.702Z,95826.47
2022-07-25T15:45:52.874Z,95827.38
2022-07-25T15:48:19.654Z,95824.44
2022-07-25T15:50:47.713Z,95853.41
2022-07-25T15:53:14.018Z,95839.16
2022-07-25T15:55:40.863Z,95847.28
2022-07-25T15:58:08.806Z,95844.09
2022-07-25T16:00:35.199Z,95840.63
2022-07-25T16:03:01.529Z,95841.56
2022-07-25T16:05:28.827Z,95848.72
2022-07-25T16:07:54.729Z,95847.84
2022-07-25T16:10:20.781Z,95843.22
2022-07-25T16:12:46.673Z,95843.00
2022-07-25T16:15:12.623Z,95869.63
2022-07-25T16:17:39.129Z,95849.41
2022-07-25T16:20:06.509Z,95845.00
2022-07-25T16:22:33.658Z,95852.41
2022-07-25T16:25:02.302Z,95858.00
2022-07-25T16:27:29.151Z,95868.38
2022-07-25T16:29:55.649Z,95876.50
2022-07-25T16:32:21.557Z,95879.16
2022-07-25T16:34:47.422Z,95878.50
2022-07-25T16:37:13.288Z,95892.34
2022-07-25T16:39:39.465Z,95905.84
2022-07-25T16:42:05.484Z,95921.31
2022-07-25T16:44:31.312Z,95911.28
2022-07-25T16:46:57.412Z,95908.66
2022-07-25T16:49:23.560Z,95903.16
2022-07-25T16:51:51.336Z,95899.06
2022-07-25T16:54:17.152Z,95907.03
2022-07-25T16:56:43.170Z,95912.13
2022-07-25T16:59:10.747Z,95914.31
2022-07-25T17:01:37.228Z,95916.66
2022-07-25T17:04:03.751Z,95910.44
2022-07-25T17:06:30.222Z,95911.84
2022-07-25T17:08:56.137Z,95913.84
2022-07-25T17:11:22.061Z,95911.81
2022-07-25T17:13:48.038Z,95913.44
2022-07-25T17:16:13.987Z,95905.09
2022-07-25T17:18:39.862Z,95901.59
2022-07-25T17:21:06.682Z,95895.72
2022-07-25T17:23:32.817Z,95897.13
2022-07-25T17:25:58.845Z,95894.63
2022-07-25T17:28:24.928Z,95894.56
2022-07-25T17:30:50.984Z,95904.44
2022-07-25T17:33:17.151Z,95896.31
2022-07-25T17:35:43.196Z,95893.28
2022-07-25T17:38:11.222Z,95902.63
2022-07-25T17:40:40.265Z,95903.75
2022-07-25T17:43:06.157Z,95895.63
2022-07-25T17:45:32.136Z,95896.59
2022-07-25T17:47:57.980Z,95901.41
2022-07-25T17:50:29.245Z,95887.41
2022-07-25T17:52:59.337Z,95908.00
2022-07-25T17:55:26.294Z,95900.28
2022-07-25T17:57:54.899Z,95906.34
2022-07-25T18:00:22.389Z,95903.69
2022-07-25T18:02:49.522Z,95905.66
2022-07-25T18:05:16.273Z,95912.16
2022-07-25T18:07:48.712Z,95916.13
2022-07-25T18:10:16.977Z,95911.53
2022-07-25T18:12:43.403Z,95910.91
2022-07-25T18:15:11.523Z,95920.72
2022-07-25T18:17:40.258Z,95931.94
2022-07-25T18:20:06.731Z,95906.97
2022-07-25T18:22:33.032Z,95908.22
2022-07-25T18:24:58.848Z,95914.69
2022-07-25T18:27:25.080Z,95911.00
2022-07-25T18:29:51.008Z,95916.91
2022-07-25T18:32:16.845Z,95921.97
2022-07-25T18:34:42.715Z,95923.91
2022-07-25T18:37:09.265Z,95922.53
2022-07-25T18:39:35.272Z,95929.09
2022-07-25T18:42:01.168Z,95931.94
2022-07-25T18:44:26.986Z,95943.00
2022-07-25T18:46:52.907Z,95937.81
2022-07-25T18:49:18.935Z,95929.03
2022-07-25T18:51:44.824Z,95932.53
2022-07-25T18:54:11.074Z,95938.38
2022-07-25T18:56:37.132Z,95940.94
2022-07-25T18:59:03.099Z,95938.41
2022-07-25T19:01:29.714Z,95945.53
2022-07-25T19:03:55.959Z,95945.31
2022-07-25T19:06:21.989Z,95951.31
2022-07-25T19:08:47.899Z,95949.06
2022-07-25T19:11:13.950Z,95951.44
2022-07-25T19:13:49.436Z,95949.06
2022-07-25T19:16:17.207Z,95953.44
2022-07-25T19:18:43.212Z,95962.59
2022-07-25T19:21:09.293Z,95945.75
2022-07-25T19:23:35.201Z,95964.47
2022-07-25T19:26:02.122Z,95963.16
2022-07-25T19:28:28.354Z,95971.19
2022-07-25T19:30:55.310Z,95975.78
2022-07-25T19:33:21.382Z,95971.88
2022-07-25T19:35:47.542Z,95978.44
2022-07-25T19:38:13.507Z,95977.50
2022-07-25T19:40:39.600Z,95989.00
2022-07-25T19:43:05.616Z,95986.47
2022-07-25T19:45:31.913Z,95987.53
2022-07-25T19:48:00.247Z,95995.91
2022-07-25T19:50:26.825Z,95996.25
2022-07-25T19:52:52.921Z,95997.94
2022-07-25T19:55:18.955Z,95999.03
2022-07-25T19:57:44.904Z,96001.34
2022-07-25T20:00:11.297Z,96004.56
2022-07-25T20:02:37.169Z,96007.91
2022-07-25T20:05:03.556Z,96012.78
2022-07-25T20:07:29.496Z,96019.41
2022-07-25T20:09:55.335Z,96019.41
2022-07-25T20:12:21.398Z,96009.31
2022-07-25T20:14:47.391Z,96002.78
2022-07-25T20:17:14.392Z,96005.84
2022-07-25T20:19:40.528Z,96013.66
2022-07-25T20:22:06.796Z,96011.28
2022-07-25T20:24:33.262Z,96016.34
2022-07-25T20:27:00.181Z,96014.06
2022-07-25T20:29:26.082Z,96011.41
2022-07-25T20:31:53.283Z,96015.00
2022-07-25T20:34:19.817Z,96008.53
2022-07-25T20:36:45.805Z,96007.84
2022-07-25T20:39:12.558Z,96007.84
2022-07-25T20:41:39.479Z,96007.97
2022-07-25T20:44:05.597Z,96003.09
2022-07-25T20:46:38.354Z,96012.09
2022-07-25T20:49:07.803Z,96019.94
2022-07-25T20:51:41.357Z,96018.44
2022-07-25T20:54:07.523Z,96021.22
2022-07-25T20:56:33.392Z,96028.16
2022-07-25T20:58:59.281Z,96023.53
2022-07-25T21:01:25.620Z,96028.78
2022-07-25T21:03:51.696Z,96035.31
2022-07-25T21:06:17.786Z,96025.22
2022-07-25T21:08:43.652Z,96032.63
2022-07-25T21:11:09.705Z,96033.44
2022-07-25T21:13:36.377Z,96034.81
2022-07-25T21:16:02.557Z,96044.34
2022-07-25T21:18:28.602Z,96038.97
2022-07-25T21:20:54.706Z,96041.75
2022-07-25T21:23:20.821Z,96040.94
2022-07-25T21:25:47.752Z,96041.75
2022-07-25T21:28:13.797Z,96046.22
2022-07-25T21:30:42.040Z,96050.16
2022-07-25T21:33:14.200Z,96058.47
2022-07-25T21:35:49.234Z,96056.78
2022-07-25T21:38:27.311Z,96060.13
2022-07-25T21:40:57.623Z,96064.38
2022-07-25T21:43:23.583Z,96061.28
2022-07-25T21:45:49.590Z,96065.47
2022-07-25T21:48:15.671Z,96063.38
2022-07-25T21:50:47.806Z,96065.84
2022-07-25T21:53:15.395Z,96072.41
2022-07-25T21:55:41.233Z,96073.84
2022-07-25T21:58:07.481Z,96068.91
2022-07-25T22:00:34.022Z,96069.66
2022-07-25T22:03:01.725Z,96069.28
2022-07-25T22:05:27.633Z,96071.69
2022-07-25T22:07:53.601Z,96068.94
2022-07-25T22:10:21.071Z,96073.63
2022-07-25T22:12:47.609Z,96076.97
2022-07-25T22:15:14.947Z,96070.34
2022-07-25T22:17:48.738Z,96080.50
2022-07-25T22:20:15.406Z,96076.13
2022-07-25T22:22:41.276Z,96081.59
2022-07-25T22:25:07.809Z,96072.41
2022-07-25T22:27:33.753Z,96086.44
2022-07-25T22:29:59.616Z,96085.88
2022-07-25T22:32:25.514Z,96090.09
2022-07-25T22:34:51.398Z,96093.78
2022-07-25T22:37:17.248Z,96095.16
2022-07-25T22:39:43.375Z,96097.25
2022-07-25T22:42:09.277Z,96091.44
2022-07-25T22:44:35.152Z,96098.69
2022-07-25T22:47:00.969Z,96091.31
2022-07-25T22:49:26.789Z,96099.84
2022-07-25T22:51:53.131Z,96110.63
2022-07-25T22:54:18.940Z,96105.13
2022-07-25T22:56:44.768Z,96110.66
2022-07-25T22:59:10.905Z,96108.28
2022-07-25T23:01:37.007Z,96109.13
2022-07-25T23:04:02.931Z,96102.81
2022-07-25T23:06:28.907Z,96109.50
2022-07-25T23:08:56.107Z,96113.59
2022-07-25T23:11:22.088Z,96102.63
2022-07-25T23:13:47.968Z,96103.91
2022-07-25T23:16:13.907Z,96109.38
2022-07-25T23:18:39.779Z,96117.56
2022-07-25T23:21:05.977Z,96116.75
2022-07-25T23:23:31.918Z,96111.56
2022-07-25T23:25:57.746Z,96114.03
2022-07-25T23:28:23.561Z,96116.19
2022-07-25T23:30:49.400Z,96117.41
2022-07-25T23:33:15.266Z,96123.94
2022-07-25T23:35:41.536Z,96113.88
2022-07-25T23:38:07.473Z,96116.19
2022-07-25T23:40:33.512Z,96114.16
2022-07-25T23:42:59.445Z,96119.44
2022-07-25T23:45:28.098Z,96119.16
2022-07-25T23:47:55.433Z,96123.94
2022-07-25T23:50:22.213Z,96125.50
2022-07-25T23:52:48.084Z,96126.38
2022-07-25T23:55:13.876Z,96116.41
2022-07-25T23:57:39.907Z,96122.53
